Time;durP1;ratioP1;P1;durP2;ratioP2;P2;SDS_P1;SDS_P2;PMS_P1;PMS_P2;Temp;Humidity;BMP_temperature;BMP_pressure;BME280_temperature;BME280_humidity;BME280_pressure;Samples;Min_cycle;Max_cycle;Signal;HPM_P1;HPM_P2
2022/08/06 00:01:53;;;;;;;3.90;0.80;;;18.10;94.00;;;;;;5028174;28;20617;-80
2022/08/06 00:04:19;;;;;;;2.93;1.00;;;18.00;94.10;;;;;;5031694;28;20608;-79
2022/08/06 00:06:45;;;;;;;1.50;0.80;;;18.00;94.20;;;;;;5030764;28;20624;-79
2022/08/06 00:09:12;;;;;;;3.63;1.27;;;18.00;94.30;;;;;;5032121;28;20576;-79
2022/08/06 00:11:38;;;;;;;2.40;0.70;;;17.90;94.30;;;;;;5013407;28;20601;-79
2022/08/06 00:14:05;;;;;;;3.40;1.00;;;17.90;94.50;;;;;;5031075;28;20570;-79
2022/08/06 00:16:31;;;;;;;2.00;1.00;;;17.90;94.60;;;;;;5030246;28;20597;-79
2022/08/06 00:18:56;;;;;;;2.97;1.10;;;17.90;94.70;;;;;;5032893;28;20566;-80
2022/08/06 00:21:22;;;;;;;3.07;1.13;;;17.80;94.80;;;;;;5020950;28;21008;-79
2022/08/06 00:23:48;;;;;;;2.37;0.77;;;17.80;95.30;;;;;;5016329;28;20174;-79
2022/08/06 00:26:14;;;;;;;1.60;0.80;;;17.80;95.00;;;;;;5017054;28;21023;-79
2022/08/06 00:28:40;;;;;;;2.63;1.00;;;17.70;95.20;;;;;;5016852;28;20576;-80
2022/08/06 00:31:07;;;;;;;4.80;1.00;;;17.70;95.30;;;;;;5018399;28;21140;-80
2022/08/06 00:33:34;;;;;;;4.10;0.90;;;17.70;95.40;;;;;;5017102;28;20177;-79
2022/08/06 00:35:59;;;;;;;2.10;0.93;;;17.60;95.50;;;;;;5016704;28;20624;-78
2022/08/06 00:38:25;;;;;;;1.77;0.90;;;17.60;95.60;;;;;;5015365;28;21168;-79
2022/08/06 00:40:52;;;;;;;1.60;0.80;;;17.60;95.90;;;;;;5016349;28;20592;-79
2022/08/06 00:43:18;;;;;;;6.50;0.90;;;17.50;96.10;;;;;;5022799;28;20174;-79
2022/08/06 00:45:44;;;;;;;2.73;1.00;;;17.50;96.30;;;;;;5015974;28;20624;-79
2022/08/06 00:48:10;;;;;;;4.37;1.17;;;17.50;96.30;;;;;;5017085;28;20581;-80
2022/08/06 00:50:36;;;;;;;2.97;0.90;;;17.50;96.40;;;;;;5026807;28;20178;-80
2022/08/06 00:53:03;;;;;;;2.90;0.90;;;17.40;96.40;;;;;;5025176;28;20190;-80
2022/08/06 00:55:30;;;;;;;3.40;1.00;;;17.40;96.50;;;;;;5028004;28;20265;-79
2022/08/06 00:57:56;;;;;;;4.07;0.80;;;17.40;96.60;;;;;;5011712;28;20632;-80
2022/08/06 01:00:22;;;;;;;2.70;0.70;;;17.40;96.70;;;;;;5028153;28;20672;-80
2022/08/06 01:02:47;;;;;;;3.20;0.80;;;17.30;96.70;;;;;;5026716;28;20202;-80
2022/08/06 01:05:13;;;;;;;2.23;1.07;;;17.30;96.80;;;;;;5027479;28;20190;-80
2022/08/06 01:07:39;;;;;;;2.40;1.00;;;17.30;96.90;;;;;;5025461;28;20174;-79
2022/08/06 01:10:05;;;;;;;3.83;0.90;;;17.20;97.00;;;;;;5024909;28;20313;-80
2022/08/06 01:12:31;;;;;;;3.43;0.90;;;17.20;97.20;;;;;;5009649;28;20252;-80
2022/08/06 01:14:56;;;;;;;2.10;0.80;;;17.20;97.30;;;;;;5025716;28;20577;-77
2022/08/06 01:17:28;;;;;;;2.33;0.93;;;17.10;97.20;;;;;;5010587;28;20725;-77
2022/08/06 01:20:17;;;;;;;2.17;1.33;;;17.10;97.40;;;;;;5011737;28;20167;-77
2022/08/06 01:23:10;;;;;;;1.67;0.70;;;17.10;97.50;;;;;;5010308;28;20613;-77
2022/08/06 01:25:50;;;;;;;2.43;0.90;;;17.10;97.80;;;;;;5011220;28;20617;-77
2022/08/06 01:28:45;;;;;;;1.70;0.80;;;17.00;97.60;;;;;;5011849;28;20565;-77
2022/08/06 01:31:17;;;;;;;3.53;1.47;;;17.00;98.10;;;;;;5011526;28;20600;-77
2022/08/06 01:33:59;;;;;;;2.67;0.80;;;17.00;98.00;;;;;;5009974;28;20574;-77
2022/08/06 01:36:32;;;;;;;3.00;0.87;;;16.90;98.10;;;;;;5009942;28;20577;-77
2022/08/06 01:39:00;;;;;;;6.17;0.80;;;16.90;98.10;;;;;;5010465;28;20565;-77
2022/08/06 01:41:51;;;;;;;2.23;0.70;;;16.90;98.10;;;;;;5011602;28;20611;-77
2022/08/06 01:44:20;;;;;;;3.13;0.93;;;16.80;98.20;;;;;;5010027;28;21007;-77
2022/08/06 01:46:56;;;;;;;2.23;1.00;;;16.80;98.20;;;;;;5011241;28;20665;-77
2022/08/06 01:49:29;;;;;;;2.70;0.97;;;16.80;98.40;;;;;;5011561;28;20561;-77
2022/08/06 01:51:58;;;;;;;2.23;0.60;;;16.70;98.40;;;;;;5011543;28;20988;-77
2022/08/06 01:54:28;;;;;;;2.20;0.90;;;16.70;98.50;;;;;;5010219;28;20684;-77
2022/08/06 01:56:56;;;;;;;1.97;0.80;;;16.60;98.50;;;;;;5009966;28;21167;-77
2022/08/06 01:59:27;;;;;;;3.20;1.07;;;16.60;98.60;;;;;;5010262;28;21014;-77
2022/08/06 02:01:56;;;;;;;1.67;1.10;;;16.60;98.70;;;;;;5013178;28;20649;-77
2022/08/06 02:04:27;;;;;;;2.43;0.90;;;16.60;98.90;;;;;;5015273;28;20591;-77
2022/08/06 02:06:55;;;;;;;1.40;0.70;;;16.60;98.90;;;;;;5014706;28;20628;-77
2022/08/06 02:09:22;;;;;;;4.20;0.97;;;16.60;99.00;;;;;;5015201;28;21141;-77
2022/08/06 02:11:55;;;;;;;3.13;0.83;;;16.60;99.10;;;;;;5013655;28;20608;-77
2022/08/06 02:14:22;;;;;;;4.03;0.83;;;16.50;99.20;;;;;;5015162;28;20608;-77
2022/08/06 02:16:49;;;;;;;2.10;0.70;;;16.50;99.20;;;;;;5014644;28;20585;-77
2022/08/06 02:19:17;;;;;;;4.93;1.10;;;16.50;99.30;;;;;;5013718;28;20588;-77
2022/08/06 02:21:46;;;;;;;2.20;0.80;;;16.40;99.70;;;;;;5014710;28;20621;-76
2022/08/06 02:24:13;;;;;;;4.93;1.00;;;16.40;99.40;;;;;;5014595;28;20569;-77
2022/08/06 02:26:40;;;;;;;1.73;0.70;;;16.40;99.50;;;;;;5014345;28;20628;-77
2022/08/06 02:29:16;;;;;;;2.35;0.70;;;16.40;99.60;;;;;;5013636;28;20573;-77
2022/08/06 02:31:43;;;;;;;2.10;0.90;;;16.40;99.70;;;;;;5013470;28;20222;-77
2022/08/06 02:34:09;;;;;;;3.43;0.80;;;16.40;99.70;;;;;;5014706;28;20640;-77
2022/08/06 02:36:41;;;;;;;4.83;0.90;;;16.30;99.80;;;;;;5013041;28;21168;-77
2022/08/06 02:39:13;;;;;;;2.10;0.80;;;16.30;99.90;;;;;;5013550;28;20643;-77
2022/08/06 02:41:51;;;;;;;2.30;1.00;;;16.30;99.90;;;;;;5014540;28;20624;-77
2022/08/06 02:44:34;;;;;;;2.63;1.00;;;16.20;99.90;;;;;;5013319;28;20581;-76
2022/08/06 02:47:08;;;;;;;4.93;1.10;;;16.20;99.90;;;;;;5014103;28;20584;-77
2022/08/06 02:49:40;;;;;;;2.60;1.00;;;16.20;99.90;;;;;;5013249;28;20568;-76
2022/08/06 02:52:27;;;;;;;7.30;1.30;;;16.20;99.90;;;;;;5014229;28;20696;-76
2022/08/06 02:55:00;;;;;;;4.00;1.10;;;16.10;99.90;;;;;;5013719;28;20565;-77
2022/08/06 02:57:35;;;;;;;2.07;1.10;;;16.10;99.90;;;;;;5012974;28;21163;-76
2022/08/06 03:00:05;;;;;;;2.13;0.83;;;16.10;99.90;;;;;;5014041;28;20579;-77
2022/08/06 03:02:35;;;;;;;2.70;0.80;;;16.00;99.90;;;;;;5013671;28;20611;-76
2022/08/06 03:05:04;;;;;;;2.73;0.90;;;16.00;99.90;;;;;;4995707;28;20724;-76
2022/08/06 03:07:32;;;;;;;2.00;0.80;;;16.00;99.90;;;;;;5014048;28;20569;-76
2022/08/06 03:09:59;;;;;;;3.85;0.82;;;15.90;99.90;;;;;;5019871;28;20566;-76
2022/08/06 03:12:26;;;;;;;3.07;1.30;;;16.00;99.90;;;;;;5015730;28;20666;-77
2022/08/06 03:14:53;;;;;;;3.00;1.13;;;15.90;99.90;;;;;;5013473;28;20944;-76
2022/08/06 03:17:21;;;;;;;2.73;1.40;;;15.90;99.90;;;;;;5013841;28;20608;-76
2022/08/06 03:19:49;;;;;;;3.43;1.23;;;15.90;99.90;;;;;;5013819;28;20569;-76
2022/08/06 03:22:17;;;;;;;2.73;1.37;;;15.80;99.90;;;;;;5012244;28;20601;-76
2022/08/06 03:24:45;;;;;;;5.07;1.30;;;15.80;99.90;;;;;;5012015;28;20577;-76
2022/08/06 03:27:14;;;;;;;2.23;1.00;;;15.80;99.90;;;;;;5013117;28;20565;-76
2022/08/06 03:29:42;;;;;;;1.93;0.90;;;15.80;99.90;;;;;;5013697;28;20988;-76
2022/08/06 03:32:11;;;;;;;3.27;2.00;;;15.80;99.90;;;;;;5013463;28;20604;-76
2022/08/06 03:34:37;;;;;;;2.45;1.10;;;15.70;99.90;;;;;;5013227;28;20565;-76
2022/08/06 03:37:04;;;;;;;3.30;1.00;;;15.70;99.90;;;;;;5011990;28;20181;-76
2022/08/06 03:39:32;;;;;;;2.90;0.90;;;15.70;99.90;;;;;;5013428;28;20557;-76
2022/08/06 03:41:58;;;;;;;2.93;1.03;;;15.70;99.90;;;;;;4995657;28;20708;-76
2022/08/06 03:44:24;;;;;;;4.80;1.20;;;15.70;99.90;;;;;;5013454;28;20576;-75
2022/08/06 03:47:13;;;;;;;2.33;1.10;;;15.70;99.90;;;;;;5012746;28;21319;-76
2022/08/06 03:49:43;;;;;;;4.07;1.10;;;15.70;99.90;;;;;;5013241;28;20554;-77
2022/08/06 03:52:13;;;;;;;5.50;1.70;;;15.70;99.90;;;;;;5012958;28;20585;-77
2022/08/06 03:54:44;;;;;;;4.13;2.20;;;15.60;99.90;;;;;;5012626;28;20167;-76
2022/08/06 03:57:14;;;;;;;5.40;1.73;;;15.60;99.90;;;;;;5011607;28;20605;-76
2022/08/06 03:59:43;;;;;;;4.63;1.30;;;15.60;99.90;;;;;;5013002;28;20922;-76
2022/08/06 04:02:10;;;;;;;2.93;1.00;;;15.60;99.90;;;;;;5012811;28;20605;-76
2022/08/06 04:04:37;;;;;;;2.47;1.00;;;15.60;99.90;;;;;;5012415;28;20589;-76
2022/08/06 04:07:03;;;;;;;3.20;1.10;;;15.60;99.90;;;;;;5011447;28;20585;-77
2022/08/06 04:09:31;;;;;;;5.10;1.20;;;15.60;99.90;;;;;;5012842;28;20661;-76
2022/08/06 04:11:57;;;;;;;4.07;1.20;;;15.50;99.90;;;;;;5012748;28;20605;-76
2022/08/06 04:14:24;;;;;;;4.50;1.13;;;15.50;99.90;;;;;;5011460;28;20565;-76
2022/08/06 04:16:51;;;;;;;2.87;1.20;;;15.50;99.90;;;;;;5011077;28;20504;-77
2022/08/06 04:19:19;;;;;;;2.60;1.10;;;15.50;99.90;;;;;;4995107;28;20624;-77
2022/08/06 04:21:46;;;;;;;4.93;1.30;;;15.50;99.90;;;;;;5011231;28;20621;-76
2022/08/06 04:24:13;;;;;;;4.23;1.07;;;15.50;99.90;;;;;;5011947;28;20961;-76
2022/08/06 04:26:41;;;;;;;2.08;1.27;;;15.40;99.90;;;;;;5012104;28;20648;-76
2022/08/06 04:29:12;;;;;;;2.00;1.30;;;15.40;99.90;;;;;;5012496;28;20154;-76
2022/08/06 04:31:39;;;;;;;2.40;1.50;;;15.40;99.90;;;;;;5011060;28;20593;-76
2022/08/06 04:34:06;;;;;;;3.10;1.10;;;15.40;99.90;;;;;;4994822;28;21101;-76
2022/08/06 04:36:33;;;;;;;4.57;1.10;;;15.40;99.90;;;;;;5011967;28;20572;-76
2022/08/06 04:38:59;;;;;;;2.70;0.97;;;15.40;99.90;;;;;;5012344;28;20570;-76
2022/08/06 04:41:25;;;;;;;4.37;1.10;;;15.40;99.90;;;;;;5012482;28;20608;-76
2022/08/06 04:43:53;;;;;;;3.70;1.05;;;15.40;99.90;;;;;;5012195;28;20597;-76
2022/08/06 04:46:20;;;;;;;5.53;1.45;;;15.40;99.90;;;;;;5011967;28;20198;-76
2022/08/06 04:48:47;;;;;;;5.17;1.40;;;15.40;99.90;;;;;;4994838;28;20651;-75
2022/08/06 04:51:13;;;;;;;2.20;1.10;;;15.40;99.90;;;;;;5012301;28;20640;-76
2022/08/06 04:53:40;;;;;;;3.10;1.10;;;15.40;99.90;;;;;;5012493;28;20598;-76
2022/08/06 04:56:08;;;;;;;3.97;1.00;;;15.40;99.90;;;;;;5011764;28;20656;-76
2022/08/06 04:58:34;;;;;;;4.53;1.10;;;15.40;99.90;;;;;;5012135;28;20569;-76
2022/08/06 05:01:01;;;;;;;4.90;1.23;;;15.50;99.90;;;;;;5011929;28;20957;-76
2022/08/06 05:03:28;;;;;;;4.67;1.97;;;15.50;99.90;;;;;;5011880;28;20605;-77
2022/08/06 05:06:18;;;;;;;5.13;1.73;;;15.50;99.90;;;;;;5011435;28;20981;-76
2022/08/06 05:08:50;;;;;;;2.03;1.15;;;15.50;99.90;;;;;;5011984;28;20597;-76
2022/08/06 05:11:28;;;;;;;4.40;1.77;;;15.60;99.90;;;;;;5011848;28;20201;-76
2022/08/06 05:14:07;;;;;;;2.90;1.43;;;15.60;99.90;;;;;;5011889;28;20574;-76
2022/08/06 05:16:36;;;;;;;4.27;1.67;;;15.60;99.90;;;;;;5010191;28;21105;-76
2022/08/06 05:19:05;;;;;;;4.40;1.30;;;15.60;99.90;;;;;;5011689;28;20943;-76
2022/08/06 05:21:35;;;;;;;4.37;1.97;;;15.70;99.90;;;;;;5011805;28;20593;-76
2022/08/06 05:24:02;;;;;;;4.30;1.73;;;15.70;99.90;;;;;;5010301;28;20577;-76
2022/08/06 05:26:28;;;;;;;3.03;1.70;;;15.80;99.90;;;;;;5009919;28;20680;-77
2022/08/06 05:28:54;;;;;;;2.67;1.40;;;15.90;99.90;;;;;;5011704;28;21169;-76
2022/08/06 05:31:35;;;;;;;5.33;1.60;;;15.90;99.90;;;;;;5010216;28;20696;-76
2022/08/06 05:34:02;;;;;;;6.20;1.57;;;15.90;99.90;;;;;;5011685;28;20566;-76
2022/08/06 05:36:28;;;;;;;4.13;1.50;;;16.00;99.90;;;;;;5015319;28;20584;-77
2022/08/06 05:38:54;;;;;;;2.43;1.53;;;16.00;99.90;;;;;;5015533;28;20569;-76
2022/08/06 05:41:20;;;;;;;3.90;1.27;;;16.10;99.90;;;;;;5015660;28;20601;-77
2022/08/06 05:43:46;;;;;;;4.33;1.47;;;16.10;99.90;;;;;;5014599;28;20937;-77
2022/08/06 05:46:15;;;;;;;4.87;1.97;;;16.20;99.90;;;;;;5014025;28;20198;-77
2022/08/06 05:48:54;;;;;;;3.10;1.50;;;16.30;99.90;;;;;;5015741;28;20185;-77
2022/08/06 05:51:43;;;;;;;3.30;1.60;;;16.40;99.90;;;;;;5015687;28;20658;-77
2022/08/06 05:54:15;;;;;;;5.37;1.60;;;16.40;99.90;;;;;;5015727;28;20558;-77
2022/08/06 05:56:45;;;;;;;4.07;1.83;;;16.60;99.90;;;;;;5015489;28;20569;-77
2022/08/06 05:59:32;;;;;;;3.10;1.80;;;16.90;99.90;;;;;;5014588;28;20593;-77
2022/08/06 06:01:58;;;;;;;3.67;1.20;;;17.40;99.90;;;;;;5014397;28;20967;-77
2022/08/06 06:04:25;;;;;;;3.53;1.83;;;18.40;99.90;;;;;;5015483;28;20581;-77
2022/08/06 06:06:51;;;;;;;2.83;1.33;;;19.50;99.90;;;;;;5014660;28;20621;-77
2022/08/06 06:09:17;;;;;;;3.50;1.73;;;20.60;99.90;;;;;;5014996;28;20573;-77
2022/08/06 06:11:43;;;;;;;4.73;1.40;;;21.60;99.90;;;;;;5013883;28;20601;-77
2022/08/06 06:14:21;;;;;;;4.20;1.47;;;22.30;99.90;;;;;;4997212;28;21167;-77
2022/08/06 06:16:47;;;;;;;3.93;1.27;;;22.90;99.90;;;;;;5014399;28;20667;-74
2022/08/06 06:19:30;;;;;;;4.43;1.70;;;23.70;99.90;;;;;;5013530;28;20647;-75
2022/08/06 06:22:16;;;;;;;3.87;1.67;;;24.40;99.90;;;;;;5013509;28;20201;-76
2022/08/06 06:25:00;;;;;;;2.60;1.37;;;25.30;99.90;;;;;;5015072;28;20593;-77
2022/08/06 06:27:40;;;;;;;4.23;1.37;;;26.30;99.90;;;;;;5015210;28;21061;-77
2022/08/06 06:30:10;;;;;;;4.27;1.83;;;27.30;99.90;;;;;;5013827;28;20569;-77
2022/08/06 06:32:41;;;;;;;1.90;1.10;;;28.30;99.90;;;;;;5013465;28;20984;-75
2022/08/06 06:35:17;;;;;;;4.10;1.30;;;29.20;99.90;;;;;;5014195;28;21069;-76
2022/08/06 06:54:27;;;;;;;2.40;0.87;;;33.40;90.70;;;;;;5013001;28;20621;-76
2022/08/06 07:01:12;;;;;;;2.63;0.87;;;34.60;83.70;;;;;;5014197;28;20599;-75
2022/08/06 07:04:28;;;;;;;3.33;1.00;;;35.40;76.70;;;;;;5013482;28;20617;-76
2022/08/06 07:06:57;;;;;;;4.33;0.80;;;35.70;74.90;;;;;;4999440;28;20700;-77
2022/08/06 07:09:26;;;;;;;2.00;0.80;;;36.30;71.80;;;;;;5016467;28;21022;-77
2022/08/06 07:11:55;;;;;;;2.93;1.03;;;36.70;67.60;;;;;;5015263;28;20605;-76
2022/08/06 07:34:20;;;;;;;1.67;0.50;;;37.20;50.30;;;;;;5013924;28;20715;-80
2022/08/06 07:36:53;;;;;;;1.43;0.60;;;37.10;51.30;;;;;;5014053;28;20675;-80
2022/08/06 07:39:33;;;;;;;7.17;1.20;;;37.00;48.00;;;;;;5012334;28;20569;-80
2022/08/06 07:42:01;;;;;;;3.80;0.80;;;36.70;47.60;;;;;;5013714;28;21223;-80
2022/08/06 07:44:29;;;;;;;4.37;0.70;;;36.60;48.00;;;;;;5013399;28;20565;-80
2022/08/06 07:46:58;;;;;;;2.87;0.77;;;36.60;48.10;;;;;;5013123;28;20647;-80
2022/08/06 07:49:35;;;;;;;1.73;0.70;;;36.70;47.00;;;;;;5012077;28;20834;-81
2022/08/06 07:52:01;;;;;;;1.73;0.60;;;36.80;47.20;;;;;;5013791;28;20667;-80
2022/08/06 07:54:30;;;;;;;2.20;0.60;;;37.00;47.60;;;;;;5012122;28;20680;-81
2022/08/06 07:56:57;;;;;;;1.40;0.60;;;37.30;46.80;;;;;;5013138;28;20586;-81
2022/08/06 07:59:25;;;;;;;2.30;0.60;;;37.30;46.00;;;;;;5012085;28;20565;-81
2022/08/06 08:01:52;;;;;;;2.13;0.60;;;37.00;45.30;;;;;;5017991;28;20604;-80
2022/08/06 08:07:05;;;;;;;1.97;0.43;;;36.20;44.10;;;;;;5011663;28;20616;-80
2022/08/06 08:09:32;;;;;;;1.50;0.50;;;35.50;43.30;;;;;;5012629;28;20619;-81
2022/08/06 08:11:58;;;;;;;2.23;0.57;;;34.70;42.80;;;;;;5011595;28;21173;-81
2022/08/06 08:14:25;;;;;;;2.23;0.50;;;34.20;43.50;;;;;;5012861;28;20621;-80
2022/08/06 08:16:52;;;;;;;1.50;0.50;;;34.20;44.70;;;;;;5011393;28;20587;-80
2022/08/06 08:19:32;;;;;;;1.30;0.50;;;34.40;45.00;;;;;;5012427;28;20577;-81
2022/08/06 08:22:01;;;;;;;1.60;0.40;;;34.80;45.10;;;;;;5011749;28;21029;-81
2022/08/06 08:24:28;;;;;;;1.67;0.60;;;35.20;44.60;;;;;;5012765;28;20577;-80
2022/08/06 08:26:55;;;;;;;2.20;0.50;;;35.60;44.10;;;;;;5012420;28;20612;-81
2022/08/06 08:29:21;;;;;;;2.37;0.60;;;35.70;42.70;;;;;;5012364;28;20565;-81
2022/08/06 08:31:47;;;;;;;2.93;0.60;;;35.80;42.30;;;;;;5012716;28;20941;-81
2022/08/06 08:34:13;;;;;;;4.67;0.60;;;36.00;42.40;;;;;;5012510;28;20561;-81
2022/08/06 08:36:39;;;;;;;2.00;0.63;;;36.20;42.30;;;;;;5012233;28;20224;-81
2022/08/06 08:39:06;;;;;;;1.40;0.50;;;36.40;42.10;;;;;;5013561;28;20605;-81
2022/08/06 08:41:37;;;;;;;1.50;0.50;;;36.70;42.20;;;;;;5012250;28;20723;-81
2022/08/06 08:44:07;;;;;;;1.73;0.47;;;37.00;41.30;;;;;;5011147;28;20573;-81
2022/08/06 08:46:41;;;;;;;1.47;0.50;;;37.00;40.00;;;;;;5012377;28;20651;-81
2022/08/06 08:49:13;;;;;;;2.50;0.40;;;36.80;39.70;;;;;;5012084;28;20557;-81
2022/08/06 08:51:40;;;;;;;1.63;0.50;;;36.70;40.00;;;;;;5013222;28;20589;-77
2022/08/06 08:54:09;;;;;;;1.70;0.60;;;36.90;40.40;;;;;;5012149;28;20577;-77
2022/08/06 08:56:36;;;;;;;2.33;0.50;;;37.00;40.00;;;;;;5011899;28;20581;-78
2022/08/06 08:59:04;;;;;;;2.73;0.60;;;37.00;38.90;;;;;;5011882;28;20601;-78
2022/08/06 09:01:30;;;;;;;2.03;0.80;;;36.50;38.20;;;;;;5012070;28;20605;-78
2022/08/06 09:03:56;;;;;;;1.80;0.60;;;36.00;38.00;;;;;;5012036;28;20688;-78
2022/08/06 09:06:23;;;;;;;1.43;0.50;;;35.30;37.70;;;;;;5011726;28;20615;-78
2022/08/06 09:08:50;;;;;;;1.40;0.47;;;34.80;38.00;;;;;;5010125;28;20571;-78
2022/08/06 09:11:15;;;;;;;1.40;0.40;;;34.60;38.50;;;;;;5011905;28;20610;-78
2022/08/06 09:13:41;;;;;;;2.30;0.50;;;34.50;39.40;;;;;;5025105;28;20582;-78
2022/08/06 09:16:07;;;;;;;1.50;0.50;;;34.60;39.30;;;;;;5013902;28;20184;-78
2022/08/06 09:18:33;;;;;;;2.17;0.60;;;35.00;40.00;;;;;;5031272;28;20178;-78
2022/08/06 09:21:01;;;;;;;1.97;0.53;;;35.40;40.20;;;;;;5030069;28;20584;-78
2022/08/06 09:23:27;;;;;;;1.30;0.50;;;35.90;40.00;;;;;;5031499;28;20539;-78
2022/08/06 09:25:53;;;;;;;1.60;0.50;;;36.20;40.20;;;;;;5031500;28;20715;-78
2022/08/06 09:28:28;;;;;;;4.13;0.60;;;36.60;39.50;;;;;;5030558;28;20568;-78
2022/08/06 09:31:10;;;;;;;1.50;0.50;;;36.90;38.60;;;;;;5031311;28;20598;-78
2022/08/06 09:33:39;;;;;;;1.33;0.40;;;36.90;37.50;;;;;;5030352;28;20576;-78
2022/08/06 09:36:08;;;;;;;7.33;0.50;;;37.10;37.20;;;;;;5031258;28;20580;-77
2022/08/06 09:38:50;;;;;;;1.67;0.57;;;37.20;36.50;;;;;;5031005;28;20588;-78
2022/08/06 09:41:18;;;;;;;3.20;0.60;;;37.50;37.40;;;;;;5031416;28;20722;-76
2022/08/06 09:43:46;;;;;;;1.67;0.60;;;38.10;37.50;;;;;;5028159;28;20592;-77
2022/08/06 09:46:13;;;;;;;1.40;0.53;;;38.50;36.40;;;;;;5028559;28;20611;-76
2022/08/06 09:49:13;;;;;;;1.23;0.40;;;38.80;35.40;;;;;;5028211;28;20649;-76
2022/08/06 09:51:40;;;;;;;1.40;0.40;;;38.60;35.10;;;;;;5008192;28;20714;-76
2022/08/06 09:54:09;;;;;;;2.70;0.53;;;38.20;33.50;;;;;;5030212;28;20612;-76
2022/08/06 09:56:36;;;;;;;1.40;0.40;;;37.70;32.90;;;;;;5031083;28;20575;-76
2022/08/06 09:59:05;;;;;;;1.40;0.60;;;37.50;33.80;;;;;;5031060;28;20659;-76
2022/08/06 10:01:39;;;;;;;1.40;0.50;;;37.50;34.20;;;;;;5031089;28;20627;-76
2022/08/06 10:04:05;;;;;;;2.90;0.60;;;37.60;33.70;;;;;;5029908;28;20599;-76
2022/08/06 10:06:32;;;;;;;1.90;0.40;;;37.70;34.40;;;;;;5030898;28;20624;-76
2022/08/06 10:09:10;;;;;;;1.30;0.50;;;37.80;33.60;;;;;;5031326;28;20252;-76
2022/08/06 10:11:39;;;;;;;2.60;0.40;;;37.70;31.50;;;;;;5029512;28;21158;-77
2022/08/06 10:14:05;;;;;;;1.30;0.40;;;37.20;30.00;;;;;;5031205;28;20805;-76
2022/08/06 10:16:31;;;;;;;1.57;0.50;;;37.00;30.10;;;;;;5031299;28;20575;-76
2022/08/06 10:18:58;;;;;;;1.20;0.50;;;37.00;31.50;;;;;;5031364;28;20577;-76
2022/08/06 10:21:27;;;;;;;1.40;0.30;;;37.00;30.80;;;;;;5032077;28;20974;-77
2022/08/06 10:23:58;;;;;;;1.30;0.40;;;37.10;32.20;;;;;;5034586;28;20603;-76
2022/08/06 10:26:29;;;;;;;3.20;0.40;;;37.10;31.80;;;;;;5033448;28;20627;-76
2022/08/06 10:29:04;;;;;;;1.30;0.43;;;36.70;31.30;;;;;;5034158;28;21004;-77
2022/08/06 10:31:35;;;;;;;1.50;0.40;;;36.10;30.80;;;;;;5034447;28;20939;-77
2022/08/06 10:34:13;;;;;;;1.93;0.40;;;35.50;30.60;;;;;;5034494;28;20969;-77
2022/08/06 10:36:59;;;;;;;1.40;0.40;;;35.10;30.30;;;;;;5033251;28;21014;-77
2022/08/06 10:39:33;;;;;;;1.17;0.37;;;35.10;31.60;;;;;;5034217;28;20582;-77
2022/08/06 10:42:00;;;;;;;1.20;0.30;;;35.30;32.30;;;;;;5034242;28;20600;-77
2022/08/06 10:44:27;;;;;;;1.30;0.40;;;35.60;32.30;;;;;;5034177;28;20572;-77
2022/08/06 10:46:53;;;;;;;1.30;0.40;;;35.60;31.70;;;;;;5032955;28;21179;-77
2022/08/06 10:49:20;;;;;;;1.20;0.40;;;35.50;31.90;;;;;;5034150;28;20579;-77
2022/08/06 10:51:48;;;;;;;1.70;0.40;;;35.50;31.80;;;;;;5034056;28;20959;-77
2022/08/06 10:54:15;;;;;;;1.30;0.40;;;35.60;32.40;;;;;;5034277;28;20576;-76
2022/08/06 10:56:41;;;;;;;2.00;0.50;;;35.70;32.60;;;;;;5034121;28;20608;-77
2022/08/06 10:59:08;;;;;;;1.30;0.40;;;35.60;31.20;;;;;;5033938;28;20575;-77
2022/08/06 11:02:15;;;;;;;1.20;0.40;;;35.60;31.50;;;;;;5034512;28;20638;-78
2022/08/06 11:04:58;;;;;;;1.20;0.40;;;35.70;32.10;;;;;;5033884;28;20592;-76
2022/08/06 11:07:24;;;;;;;1.30;0.40;;;35.90;31.80;;;;;;5032413;28;20580;-76
2022/08/06 11:10:00;;;;;;;1.80;0.40;;;35.90;31.60;;;;;;5035598;28;20573;-77
2022/08/06 11:12:43;;;;;;;1.20;0.40;;;35.60;31.30;;;;;;5034702;28;20199;-78
2022/08/06 11:15:09;;;;;;;1.40;0.40;;;35.20;30.50;;;;;;5035658;28;20602;-78
2022/08/06 11:17:54;;;;;;;1.40;0.40;;;34.70;30.50;;;;;;5034763;28;20565;-78
2022/08/06 11:20:37;;;;;;;2.37;0.50;;;34.30;31.00;;;;;;5033194;28;20681;-78
2022/08/06 11:23:05;;;;;;;1.53;0.50;;;33.80;30.10;;;;;;5016563;28;21241;-77
2022/08/06 11:25:40;;;;;;;1.63;0.40;;;33.40;30.00;;;;;;5032726;28;20609;-77
2022/08/06 11:28:11;;;;;;;1.30;0.50;;;33.00;31.10;;;;;;5033522;28;21198;-78
2022/08/06 11:30:47;;;;;;;2.37;0.40;;;33.00;31.90;;;;;;5033892;28;21119;-78
2022/08/06 11:33:37;;;;;;;1.30;0.40;;;33.10;31.50;;;;;;5033842;28;21134;-78
2022/08/06 11:36:04;;;;;;;2.33;0.40;;;33.10;31.40;;;;;;5032683;28;21038;-78
2022/08/06 11:38:42;;;;;;;1.20;0.40;;;33.20;32.10;;;;;;5033968;28;20582;-78
2022/08/06 11:41:10;;;;;;;5.00;0.50;;;33.30;31.80;;;;;;5034209;28;20651;-78
2022/08/06 11:43:51;;;;;;;1.30;0.40;;;33.30;31.80;;;;;;5033326;28;20578;-78
2022/08/06 11:46:27;;;;;;;1.37;0.50;;;33.10;31.30;;;;;;5032008;28;21041;-78
2022/08/06 11:48:59;;;;;;;2.47;0.70;;;32.60;30.70;;;;;;5033571;28;20564;-78
2022/08/06 11:51:37;;;;;;;1.63;0.63;;;32.40;31.90;;;;;;5033113;28;20696;-78
2022/08/06 11:54:24;;;;;;;2.60;0.60;;;32.30;32.70;;;;;;5033195;28;20656;-78
2022/08/06 11:57:12;;;;;;;1.20;0.40;;;32.30;32.50;;;;;;5034258;28;20576;-77
2022/08/06 11:59:47;;;;;;;1.20;0.40;;;32.20;32.20;;;;;;5033721;28;20898;-78
2022/08/06 12:02:35;;;;;;;1.20;0.40;;;32.00;32.00;;;;;;5014842;28;20962;-78
2022/08/06 12:05:01;;;;;;;1.40;0.50;;;31.60;31.70;;;;;;5030452;28;20597;-78
2022/08/06 12:07:32;;;;;;;2.57;0.47;;;31.10;31.30;;;;;;5032803;28;20584;-78
2022/08/06 12:10:10;;;;;;;1.20;0.40;;;30.60;31.40;;;;;;5032974;28;20162;-78
2022/08/06 12:12:40;;;;;;;1.10;0.40;;;30.20;31.90;;;;;;5014610;28;20600;-78
2022/08/06 12:15:12;;;;;;;1.20;0.40;;;30.00;32.60;;;;;;5032362;28;20579;-78
2022/08/06 12:17:55;;;;;;;1.40;0.40;;;29.90;33.00;;;;;;5031875;28;20584;-78
2022/08/06 12:20:29;;;;;;;1.30;0.40;;;30.00;34.10;;;;;;5014805;28;20572;-78
2022/08/06 12:22:56;;;;;;;1.67;0.50;;;30.20;34.40;;;;;;5031609;28;20596;-78
2022/08/06 12:25:30;;;;;;;1.40;0.40;;;30.40;34.70;;;;;;5032628;28;20616;-78
2022/08/06 12:27:56;;;;;;;2.17;0.47;;;30.60;33.80;;;;;;5031291;28;20573;-78
2022/08/06 12:30:22;;;;;;;1.40;0.40;;;30.60;33.60;;;;;;5032939;28;20894;-78
2022/08/06 12:32:48;;;;;;;1.77;0.43;;;30.50;33.70;;;;;;5031410;28;20620;-78
2022/08/06 12:35:14;;;;;;;1.40;0.40;;;30.40;33.40;;;;;;5032458;28;20588;-78
2022/08/06 12:37:44;;;;;;;2.00;0.47;;;30.10;33.00;;;;;;5031237;28;20580;-78
2022/08/06 12:40:28;;;;;;;2.60;0.50;;;29.90;33.10;;;;;;5032441;28;20658;-78
2022/08/06 12:43:03;;;;;;;1.30;0.50;;;29.60;33.10;;;;;;5032692;28;20676;-78
2022/08/06 12:45:31;;;;;;;2.27;0.50;;;29.40;33.50;;;;;;5032147;28;20608;-78
2022/08/06 12:47:58;;;;;;;2.17;0.50;;;29.20;33.50;;;;;;5030946;28;20584;-78
2022/08/06 12:50:25;;;;;;;1.60;0.47;;;29.00;33.40;;;;;;5030953;28;20572;-78
2022/08/06 12:53:11;;;;;;;1.60;0.50;;;28.50;33.20;;;;;;5034202;28;21044;-78
2022/08/06 12:55:54;;;;;;;1.80;0.60;;;28.20;33.60;;;;;;5030690;28;21159;-77
2022/08/06 12:58:24;;;;;;;1.47;0.40;;;27.90;33.90;;;;;;5031852;28;20608;-78
2022/08/06 13:00:53;;;;;;;1.93;0.50;;;27.80;34.00;;;;;;5014547;28;20631;-78
2022/08/06 13:03:22;;;;;;;1.63;0.47;;;27.80;34.30;;;;;;5031888;28;20584;-78
2022/08/06 13:05:48;;;;;;;2.10;0.50;;;27.70;34.20;;;;;;5030573;28;20627;-79
2022/08/06 13:08:15;;;;;;;1.50;0.50;;;27.60;34.20;;;;;;5030277;28;20663;-77
2022/08/06 13:10:56;;;;;;;1.20;0.40;;;27.40;34.10;;;;;;5013906;28;20571;-77
2022/08/06 13:13:38;;;;;;;1.63;0.60;;;27.30;34.50;;;;;;5030655;28;20580;-78
2022/08/06 13:16:10;;;;;;;2.13;0.50;;;27.10;34.70;;;;;;5031781;28;20564;-78
2022/08/06 13:18:37;;;;;;;1.30;0.50;;;27.00;34.60;;;;;;5041700;22;20705;-83
2022/08/06 13:21:15;;;;;;;1.87;0.43;;;26.90;34.80;;;;;;5009454;28;20593;-83
2022/08/06 13:23:46;;;;;;;1.40;0.50;;;26.90;34.80;;;;;;5031820;28;20560;-83
2022/08/06 13:26:13;;;;;;;1.30;0.40;;;26.80;34.80;;;;;;5031726;28;20654;-83
2022/08/06 13:28:38;;;;;;;1.20;0.40;;;26.70;34.70;;;;;;5024622;28;20937;-83
2022/08/06 13:31:18;;;;;;;1.30;0.40;;;26.60;34.80;;;;;;5019237;28;20591;-84
2022/08/06 13:34:00;;;;;;;1.10;0.30;;;26.50;34.90;;;;;;5031797;28;20268;-83
2022/08/06 13:36:28;;;;;;;2.13;0.60;;;26.50;35.10;;;;;;5031663;28;20560;-83
2022/08/06 13:38:54;;;;;;;1.70;0.50;;;26.50;35.10;;;;;;5031393;28;20617;-83
2022/08/06 13:41:28;;;;;;;1.40;0.40;;;26.50;35.10;;;;;;5031648;28;20561;-84
2022/08/06 13:43:54;;;;;;;2.57;0.60;;;26.50;35.20;;;;;;5030228;28;20565;-83
2022/08/06 13:46:21;;;;;;;1.20;0.40;;;26.50;35.30;;;;;;5013838;28;20639;-84
2022/08/06 13:48:49;;;;;;;1.30;0.50;;;26.50;35.30;;;;;;5030075;28;20597;-84
2022/08/06 13:51:16;;;;;;;1.47;0.50;;;26.50;35.30;;;;;;5031657;28;20911;-84